sensor_id;sensor_type;location;lat;lon;timestamp;P1;durP1;ratioP1;P2;durP2;ratioP2
42598;SDS011;28225;42.714;23.860;2023-05-01T00:00:03;16.93;;;10.30;;
42598;SDS011;28225;42.714;23.860;2023-05-01T00:00:20;14.07;;;11.13;;
42598;SDS011;28225;42.714;23.860;2023-05-01T00:00:35;14.17;;;12.37;;
42598;SDS011;28225;42.714;23.860;2023-05-01T00:00:51;16.65;;;14.32;;
42598;SDS011;28225;42.714;23.860;2023-05-01T00:01:07;20.15;;;17.27;;
42598;SDS011;28225;42.714;23.860;2023-05-01T00:01:22;21.03;;;18.60;;
42598;SDS011;28225;42.714;23.860;2023-05-01T00:01:38;21.25;;;19.00;;
42598;SDS011;28225;42.714;23.860;2023-05-01T00:01:53;16.70;;;14.97;;
42598;SDS011;28225;42.714;23.860;2023-05-01T00:02:08;12.13;;;10.70;;
42598;SDS011;28225;42.714;23.860;2023-05-01T00:02:24;10.60;;;9.10;;
42598;SDS011;28225;42.714;23.860;2023-05-01T00:02:39;7.88;;;7.00;;
42598;SDS011;28225;42.714;23.860;2023-05-01T00:02:55;7.23;;;6.37;;
42598;SDS011;28225;42.714;23.860;2023-05-01T00:03:10;7.07;;;5.80;;
42598;SDS011;28225;42.714;23.860;2023-05-01T00:03:26;6.63;;;5.47;;
42598;SDS011;28225;42.714;23.860;2023-05-01T00:03:41;6.43;;;5.60;;
42598;SDS011;28225;42.714;23.860;2023-05-01T00:03:57;6.13;;;5.57;;
42598;SDS011;28225;42.714;23.860;2023-05-01T00:04:12;6.47;;;5.77;;
42598;SDS011;28225;42.714;23.860;2023-05-01T00:04:28;6.43;;;5.75;;
42598;SDS011;28225;42.714;23.860;2023-05-01T00:04:44;5.75;;;5.13;;
42598;SDS011;28225;42.714;23.860;2023-05-01T00:04:59;5.60;;;4.70;;
42598;SDS011;28225;42.714;23.860;2023-05-01T00:05:15;5.17;;;4.63;;
42598;SDS011;28225;42.714;23.860;2023-05-01T00:05:30;5.30;;;4.55;;
42598;SDS011;28225;42.714;23.860;2023-05-01T00:05:46;5.63;;;4.90;;
42598;SDS011;28225;42.714;23.860;2023-05-01T00:06:02;5.78;;;5.10;;
42598;SDS011;28225;42.714;23.860;2023-05-01T00:06:21;6.18;;;5.15;;
42598;SDS011;28225;42.714;23.860;2023-05-01T00:06:37;8.17;;;5.47;;
42598;SDS011;28225;42.714;23.860;2023-05-01T00:06:52;8.88;;;5.70;;
42598;SDS011;28225;42.714;23.860;2023-05-01T00:07:08;6.77;;;5.70;;
42598;SDS011;28225;42.714;23.860;2023-05-01T00:07:23;7.50;;;5.57;;
42598;SDS011;28225;42.714;23.860;2023-05-01T00:07:43;7.80;;;5.70;;
42598;SDS011;28225;42.714;23.860;2023-05-01T00:07:58;7.20;;;5.75;;
42598;SDS011;28225;42.714;23.860;2023-05-01T00:08:14;6.77;;;5.67;;
42598;SDS011;28225;42.714;23.860;2023-05-01T00:08:30;6.38;;;5.55;;
42598;SDS011;28225;42.714;23.860;2023-05-01T00:08:46;6.25;;;5.65;;
42598;SDS011;28225;42.714;23.860;2023-05-01T00:09:01;5.90;;;5.40;;
42598;SDS011;28225;42.714;23.860;2023-05-01T00:09:17;8.30;;;6.03;;
42598;SDS011;28225;42.714;23.860;2023-05-01T00:09:32;10.27;;;6.93;;
42598;SDS011;28225;42.714;23.860;2023-05-01T00:09:48;9.98;;;7.28;;
42598;SDS011;28225;42.714;23.860;2023-05-01T00:10:05;10.13;;;7.18;;
42598;SDS011;28225;42.714;23.860;2023-05-01T00:10:21;10.40;;;8.45;;
42598;SDS011;28225;42.714;23.860;2023-05-01T00:10:37;8.77;;;7.87;;
42598;SDS011;28225;42.714;23.860;2023-05-01T00:10:52;6.82;;;5.57;;
42598;SDS011;28225;42.714;23.860;2023-05-01T00:11:08;7.97;;;6.10;;
42598;SDS011;28225;42.714;23.860;2023-05-01T00:11:25;7.10;;;6.35;;
42598;SDS011;28225;42.714;23.860;2023-05-01T00:11:40;7.73;;;6.47;;
42598;SDS011;28225;42.714;23.860;2023-05-01T00:11:56;8.52;;;7.00;;
42598;SDS011;28225;42.714;23.860;2023-05-01T00:12:11;8.57;;;7.17;;
42598;SDS011;28225;42.714;23.860;2023-05-01T00:12:27;9.18;;;7.30;;
42598;SDS011;28225;42.714;23.860;2023-05-01T00:12:42;8.57;;;7.67;;
42598;SDS011;28225;42.714;23.860;2023-05-01T00:12:57;8.30;;;7.50;;
42598;SDS011;28225;42.714;23.860;2023-05-01T00:13:13;8.52;;;6.93;;
42598;SDS011;28225;42.714;23.860;2023-05-01T00:13:28;8.53;;;6.83;;
42598;SDS011;28225;42.714;23.860;2023-05-01T00:13:44;8.02;;;7.22;;
42598;SDS011;28225;42.714;23.860;2023-05-01T00:13:59;8.33;;;7.37;;
42598;SDS011;28225;42.714;23.860;2023-05-01T00:14:14;8.83;;;7.63;;
42598;SDS011;28225;42.714;23.860;2023-05-01T00:14:30;8.95;;;7.85;;
42598;SDS011;28225;42.714;23.860;2023-05-01T00:14:45;9.07;;;7.40;;
42598;SDS011;28225;42.714;23.860;2023-05-01T00:15:01;9.65;;;7.35;;
42598;SDS011;28225;42.714;23.860;2023-05-01T00:15:16;11.37;;;7.73;;
42598;SDS011;28225;42.714;23.860;2023-05-01T00:15:32;11.98;;;8.05;;
42598;SDS011;28225;42.714;23.860;2023-05-01T00:15:47;11.70;;;8.80;;
42598;SDS011;28225;42.714;23.860;2023-05-01T00:16:07;12.70;;;10.30;;
42598;SDS011;28225;42.714;23.860;2023-05-01T00:16:25;12.23;;;11.02;;
42598;SDS011;28225;42.714;23.860;2023-05-01T00:16:40;12.37;;;11.07;;
42598;SDS011;28225;42.714;23.860;2023-05-01T00:16:56;13.40;;;11.13;;
42598;SDS011;28225;42.714;23.860;2023-05-01T00:17:12;13.87;;;11.00;;
42598;SDS011;28225;42.714;23.860;2023-05-01T00:17:28;13.40;;;9.83;;
42598;SDS011;28225;42.714;23.860;2023-05-01T00:17:44;11.35;;;9.20;;
42598;SDS011;28225;42.714;23.860;2023-05-01T00:18:00;9.90;;;8.90;;
42598;SDS011;28225;42.714;23.860;2023-05-01T00:18:16;10.63;;;8.98;;
42598;SDS011;28225;42.714;23.860;2023-05-01T00:18:31;11.50;;;9.03;;
42598;SDS011;28225;42.714;23.860;2023-05-01T00:18:47;9.82;;;8.05;;
42598;SDS011;28225;42.714;23.860;2023-05-01T00:19:02;9.50;;;7.80;;
42598;SDS011;28225;42.714;23.860;2023-05-01T00:19:18;9.82;;;8.05;;
42598;SDS011;28225;42.714;23.860;2023-05-01T00:19:34;9.80;;;8.48;;
42598;SDS011;28225;42.714;23.860;2023-05-01T00:19:50;10.00;;;8.63;;
42598;SDS011;28225;42.714;23.860;2023-05-01T00:20:07;10.10;;;8.32;;
42598;SDS011;28225;42.714;23.860;2023-05-01T00:20:28;9.88;;;8.15;;
42598;SDS011;28225;42.714;23.860;2023-05-01T00:20:44;9.93;;;8.80;;
42598;SDS011;28225;42.714;23.860;2023-05-01T00:21:00;9.63;;;8.50;;
42598;SDS011;28225;42.714;23.860;2023-05-01T00:21:15;10.35;;;8.73;;
42598;SDS011;28225;42.714;23.860;2023-05-01T00:21:30;13.37;;;8.90;;
42598;SDS011;28225;42.714;23.860;2023-05-01T00:21:46;12.13;;;8.27;;
42598;SDS011;28225;42.714;23.860;2023-05-01T00:22:02;9.15;;;8.10;;
42598;SDS011;28225;42.714;23.860;2023-05-01T00:22:17;9.27;;;8.13;;
42598;SDS011;28225;42.714;23.860;2023-05-01T00:22:33;9.20;;;8.20;;
42598;SDS011;28225;42.714;23.860;2023-05-01T00:22:48;12.27;;;8.30;;
42598;SDS011;28225;42.714;23.860;2023-05-01T00:23:03;15.17;;;8.63;;
42598;SDS011;28225;42.714;23.860;2023-05-01T00:23:19;12.33;;;8.97;;
42598;SDS011;28225;42.714;23.860;2023-05-01T00:23:34;9.90;;;8.48;;
42598;SDS011;28225;42.714;23.860;2023-05-01T00:23:50;10.63;;;8.77;;
42598;SDS011;28225;42.714;23.860;2023-05-01T00:24:05;10.85;;;9.25;;
42598;SDS011;28225;42.714;23.860;2023-05-01T00:24:21;9.95;;;8.90;;
42598;SDS011;28225;42.714;23.860;2023-05-01T00:24:36;10.13;;;8.70;;
42598;SDS011;28225;42.714;23.860;2023-05-01T00:24:52;10.88;;;8.75;;
42598;SDS011;28225;42.714;23.860;2023-05-01T00:25:08;10.43;;;8.87;;
42598;SDS011;28225;42.714;23.860;2023-05-01T00:25:24;9.02;;;8.05;;
42598;SDS011;28225;42.714;23.860;2023-05-01T00:25:39;8.93;;;7.70;;
42598;SDS011;28225;42.714;23.860;2023-05-01T00:25:55;8.85;;;7.95;;
42598;SDS011;28225;42.714;23.860;2023-05-01T00:26:10;8.77;;;7.87;;
42598;SDS011;28225;42.714;23.860;2023-05-01T00:26:26;8.87;;;7.73;;
42598;SDS011;28225;42.714;23.860;2023-05-01T00:26:44;8.55;;;7.68;;
42598;SDS011;28225;42.714;23.860;2023-05-01T00:27:00;8.90;;;7.87;;
42598;SDS011;28225;42.714;23.860;2023-05-01T00:27:15;8.68;;;7.40;;
42598;SDS011;28225;42.714;23.860;2023-05-01T00:27:31;8.93;;;7.93;;
42598;SDS011;28225;42.714;23.860;2023-05-01T00:27:46;9.43;;;8.43;;
42598;SDS011;28225;42.714;23.860;2023-05-01T00:28:02;9.80;;;8.45;;
42598;SDS011;28225;42.714;23.860;2023-05-01T00:28:18;13.77;;;9.07;;
42598;SDS011;28225;42.714;23.860;2023-05-01T00:28:33;17.15;;;8.88;;
42598;SDS011;28225;42.714;23.860;2023-05-01T00:28:49;17.27;;;9.07;;
42598;SDS011;28225;42.714;23.860;2023-05-01T00:29:04;14.23;;;9.13;;
42598;SDS011;28225;42.714;23.860;2023-05-01T00:29:20;11.90;;;7.93;;
42598;SDS011;28225;42.714;23.860;2023-05-01T00:29:35;9.93;;;7.57;;
42598;SDS011;28225;42.714;23.860;2023-05-01T00:29:51;10.03;;;8.23;;
42598;SDS011;28225;42.714;23.860;2023-05-01T00:30:06;11.25;;;8.43;;
42598;SDS011;28225;42.714;23.860;2023-05-01T00:30:22;15.98;;;8.68;;
42598;SDS011;28225;42.714;23.860;2023-05-01T00:30:37;20.37;;;10.00;;
42598;SDS011;28225;42.714;23.860;2023-05-01T00:30:55;25.10;;;11.18;;
42598;SDS011;28225;42.714;23.860;2023-05-01T00:31:11;32.93;;;13.17;;
42598;SDS011;28225;42.714;23.860;2023-05-01T00:31:26;48.17;;;13.40;;
42598;SDS011;28225;42.714;23.860;2023-05-01T00:31:42;72.53;;;13.07;;
42598;SDS011;28225;42.714;23.860;2023-05-01T00:31:57;62.08;;;11.77;;
42598;SDS011;28225;42.714;23.860;2023-05-01T00:32:13;49.90;;;10.53;;
42598;SDS011;28225;42.714;23.860;2023-05-01T00:32:29;41.08;;;10.30;;
42598;SDS011;28225;42.714;23.860;2023-05-01T00:32:44;31.17;;;10.00;;
42598;SDS011;28225;42.714;23.860;2023-05-01T00:32:59;35.13;;;10.17;;
42598;SDS011;28225;42.714;23.860;2023-05-01T00:33:16;43.25;;;11.55;;
42598;SDS011;28225;42.714;23.860;2023-05-01T00:33:31;52.67;;;12.83;;
42598;SDS011;28225;42.714;23.860;2023-05-01T00:33:46;45.05;;;12.20;;
42598;SDS011;28225;42.714;23.860;2023-05-01T00:34:02;31.33;;;11.17;;
42598;SDS011;28225;42.714;23.860;2023-05-01T00:34:19;31.95;;;10.77;;
42598;SDS011;28225;42.714;23.860;2023-05-01T00:34:34;40.85;;;11.32;;
42598;SDS011;28225;42.714;23.860;2023-05-01T00:34:49;41.07;;;11.53;;
42598;SDS011;28225;42.714;23.860;2023-05-01T00:35:05;35.37;;;11.80;;
42598;SDS011;28225;42.714;23.860;2023-05-01T00:35:21;28.23;;;11.68;;
42598;SDS011;28225;42.714;23.860;2023-05-01T00:35:36;21.45;;;10.48;;
42598;SDS011;28225;42.714;23.860;2023-05-01T00:35:52;17.63;;;10.10;;
42598;SDS011;28225;42.714;23.860;2023-05-01T00:36:07;17.83;;;10.27;;
42598;SDS011;28225;42.714;23.860;2023-05-01T00:36:23;24.45;;;10.70;;
42598;SDS011;28225;42.714;23.860;2023-05-01T00:36:39;24.40;;;10.53;;
42598;SDS011;28225;42.714;23.860;2023-05-01T00:36:54;20.33;;;10.00;;
42598;SDS011;28225;42.714;23.860;2023-05-01T00:37:10;19.33;;;9.97;;
42598;SDS011;28225;42.714;23.860;2023-05-01T00:37:25;18.20;;;10.52;;
42598;SDS011;28225;42.714;23.860;2023-05-01T00:37:41;16.10;;;10.47;;
42598;SDS011;28225;42.714;23.860;2023-05-01T00:37:56;14.48;;;10.07;;
42598;SDS011;28225;42.714;23.860;2023-05-01T00:38:12;15.23;;;10.50;;
42598;SDS011;28225;42.714;23.860;2023-05-01T00:38:27;17.07;;;10.37;;
42598;SDS011;28225;42.714;23.860;2023-05-01T00:38:43;16.23;;;9.87;;
42598;SDS011;28225;42.714;23.860;2023-05-01T00:39:00;13.20;;;9.82;;
42598;SDS011;28225;42.714;23.860;2023-05-01T00:39:15;13.75;;;9.65;;
42598;SDS011;28225;42.714;23.860;2023-05-01T00:39:31;16.13;;;9.60;;
42598;SDS011;28225;42.714;23.860;2023-05-01T00:39:46;20.50;;;9.60;;
42598;SDS011;28225;42.714;23.860;2023-05-01T00:40:01;25.00;;;9.77;;
42598;SDS011;28225;42.714;23.860;2023-05-01T00:40:17;30.13;;;10.33;;
42598;SDS011;28225;42.714;23.860;2023-05-01T00:40:40;27.48;;;10.57;;
42598;SDS011;28225;42.714;23.860;2023-05-01T00:40:56;33.22;;;10.75;;
42598;SDS011;28225;42.714;23.860;2023-05-01T00:41:11;30.58;;;11.40;;
42598;SDS011;28225;42.714;23.860;2023-05-01T00:41:27;33.37;;;11.37;;
42598;SDS011;28225;42.714;23.860;2023-05-01T00:41:42;36.70;;;10.87;;
42598;SDS011;28225;42.714;23.860;2023-05-01T00:41:57;59.35;;;11.65;;
42598;SDS011;28225;42.714;23.860;2023-05-01T00:42:13;84.60;;;12.10;;
42598;SDS011;28225;42.714;23.860;2023-05-01T00:42:32;111.87;;;14.10;;
42598;SDS011;28225;42.714;23.860;2023-05-01T00:42:49;153.93;;;13.95;;
42598;SDS011;28225;42.714;23.860;2023-05-01T00:43:04;137.13;;;13.27;;
42598;SDS011;28225;42.714;23.860;2023-05-01T00:43:20;160.38;;;15.02;;
42598;SDS011;28225;42.714;23.860;2023-05-01T00:43:35;169.70;;;15.27;;
42598;SDS011;28225;42.714;23.860;2023-05-01T00:43:50;142.05;;;13.35;;
42598;SDS011;28225;42.714;23.860;2023-05-01T00:44:06;133.10;;;13.50;;
42598;SDS011;28225;42.714;23.860;2023-05-01T00:44:21;120.72;;;13.00;;
42598;SDS011;28225;42.714;23.860;2023-05-01T00:44:37;127.37;;;13.57;;
42598;SDS011;28225;42.714;23.860;2023-05-01T00:44:52;139.10;;;13.50;;
42598;SDS011;28225;42.714;23.860;2023-05-01T00:45:07;154.27;;;14.98;;
42598;SDS011;28225;42.714;23.860;2023-05-01T00:45:23;163.07;;;16.47;;
42598;SDS011;28225;42.714;23.860;2023-05-01T00:45:41;169.33;;;15.80;;
42598;SDS011;28225;42.714;23.860;2023-05-01T00:45:58;159.13;;;16.75;;
42598;SDS011;28225;42.714;23.860;2023-05-01T00:46:13;141.33;;;17.93;;
42598;SDS011;28225;42.714;23.860;2023-05-01T00:46:29;171.52;;;23.23;;
42598;SDS011;28225;42.714;23.860;2023-05-01T00:46:44;199.73;;;25.13;;
42598;SDS011;28225;42.714;23.860;2023-05-01T00:46:59;238.30;;;27.85;;
42598;SDS011;28225;42.714;23.860;2023-05-01T00:47:16;309.20;;;33.80;;
42598;SDS011;28225;42.714;23.860;2023-05-01T00:47:32;267.50;;;26.23;;
42598;SDS011;28225;42.714;23.860;2023-05-01T00:47:49;301.73;;;30.52;;
42598;SDS011;28225;42.714;23.860;2023-05-01T00:48:04;352.33;;;37.93;;
42598;SDS011;28225;42.714;23.860;2023-05-01T00:48:20;318.98;;;35.92;;
42598;SDS011;28225;42.714;23.860;2023-05-01T00:48:35;300.30;;;31.27;;
42598;SDS011;28225;42.714;23.860;2023-05-01T00:48:51;313.35;;;32.88;;
42598;SDS011;28225;42.714;23.860;2023-05-01T00:49:07;297.88;;;37.70;;
42598;SDS011;28225;42.714;23.860;2023-05-01T00:49:22;329.90;;;34.33;;
42598;SDS011;28225;42.714;23.860;2023-05-01T00:49:37;298.25;;;30.40;;
42598;SDS011;28225;42.714;23.860;2023-05-01T00:49:56;180.13;;;23.58;;
42598;SDS011;28225;42.714;23.860;2023-05-01T00:50:11;183.82;;;22.60;;
42598;SDS011;28225;42.714;23.860;2023-05-01T00:50:28;225.07;;;22.77;;
42598;SDS011;28225;42.714;23.860;2023-05-01T00:50:43;216.60;;;23.70;;
42598;SDS011;28225;42.714;23.860;2023-05-01T00:50:59;170.33;;;21.27;;
42598;SDS011;28225;42.714;23.860;2023-05-01T00:51:16;140.65;;;18.10;;
42598;SDS011;28225;42.714;23.860;2023-05-01T00:51:31;154.55;;;18.00;;
42598;SDS011;28225;42.714;23.860;2023-05-01T00:51:48;141.20;;;16.00;;
42598;SDS011;28225;42.714;23.860;2023-05-01T00:52:07;113.07;;;12.65;;
42598;SDS011;28225;42.714;23.860;2023-05-01T00:52:23;132.82;;;14.50;;
42598;SDS011;28225;42.714;23.860;2023-05-01T00:52:39;131.65;;;15.75;;
42598;SDS011;28225;42.714;23.860;2023-05-01T00:52:55;107.07;;;13.57;;
42598;SDS011;28225;42.714;23.860;2023-05-01T00:53:11;160.27;;;19.50;;
42598;SDS011;28225;42.714;23.860;2023-05-01T00:53:26;167.95;;;22.63;;
42598;SDS011;28225;42.714;23.860;2023-05-01T00:53:42;143.38;;;16.77;;
42598;SDS011;28225;42.714;23.860;2023-05-01T00:53:58;153.57;;;16.33;;
42598;SDS011;28225;42.714;23.860;2023-05-01T00:54:15;120.22;;;17.10;;
42598;SDS011;28225;42.714;23.860;2023-05-01T00:54:31;90.03;;;14.18;;
42598;SDS011;28225;42.714;23.860;2023-05-01T00:54:47;103.73;;;14.17;;
42598;SDS011;28225;42.714;23.860;2023-05-01T00:55:06;120.78;;;15.32;;
42598;SDS011;28225;42.714;23.860;2023-05-01T00:55:22;104.78;;;13.68;;
42598;SDS011;28225;42.714;23.860;2023-05-01T00:55:37;79.23;;;14.00;;
42598;SDS011;28225;42.714;23.860;2023-05-01T00:55:56;87.72;;;14.23;;
42598;SDS011;28225;42.714;23.860;2023-05-01T00:56:12;83.13;;;12.43;;
42598;SDS011;28225;42.714;23.860;2023-05-01T00:56:29;89.60;;;13.00;;
42598;SDS011;28225;42.714;23.860;2023-05-01T00:56:48;85.00;;;14.75;;
42598;SDS011;28225;42.714;23.860;2023-05-01T00:57:04;52.35;;;12.52;;
42598;SDS011;28225;42.714;23.860;2023-05-01T00:57:21;50.90;;;11.73;;
42598;SDS011;28225;42.714;23.860;2023-05-01T00:57:36;42.87;;;11.47;;
42598;SDS011;28225;42.714;23.860;2023-05-01T00:57:52;32.83;;;9.98;;
42598;SDS011;28225;42.714;23.860;2023-05-01T00:58:09;39.10;;;10.65;;
42598;SDS011;28225;42.714;23.860;2023-05-01T00:58:25;46.35;;;10.75;;
42598;SDS011;28225;42.714;23.860;2023-05-01T00:58:41;46.33;;;9.93;;
42598;SDS011;28225;42.714;23.860;2023-05-01T00:58:57;72.55;;;13.27;;
42598;SDS011;28225;42.714;23.860;2023-05-01T00:59:13;73.15;;;12.77;;
42598;SDS011;28225;42.714;23.860;2023-05-01T00:59:29;39.88;;;9.10;;
42598;SDS011;28225;42.714;23.860;2023-05-01T00:59:45;56.25;;;11.13;;
42598;SDS011;28225;42.714;23.860;2023-05-01T01:00:01;79.35;;;12.40;;
42598;SDS011;28225;42.714;23.860;2023-05-01T01:00:16;85.17;;;13.10;;
42598;SDS011;28225;42.714;23.860;2023-05-01T01:00:33;76.43;;;13.77;;
42598;SDS011;28225;42.714;23.860;2023-05-01T01:00:49;55.55;;;10.73;;
42598;SDS011;28225;42.714;23.860;2023-05-01T01:01:04;54.57;;;11.10;;
42598;SDS011;28225;42.714;23.860;2023-05-01T01:01:20;63.83;;;13.00;;
42598;SDS011;28225;42.714;23.860;2023-05-01T01:01:35;79.07;;;12.43;;
42598;SDS011;28225;42.714;23.860;2023-05-01T01:01:51;81.65;;;12.60;;
42598;SDS011;28225;42.714;23.860;2023-05-01T01:02:06;91.73;;;13.23;;
42598;SDS011;28225;42.714;23.860;2023-05-01T01:02:21;105.17;;;14.17;;
42598;SDS011;28225;42.714;23.860;2023-05-01T01:02:37;96.13;;;14.93;;
42598;SDS011;28225;42.714;23.860;2023-05-01T01:02:52;87.07;;;13.60;;
42598;SDS011;28225;42.714;23.860;2023-05-01T01:03:09;100.13;;;13.35;;
42598;SDS011;28225;42.714;23.860;2023-05-01T01:03:25;112.97;;;13.85;;
42598;SDS011;28225;42.714;23.860;2023-05-01T01:03:41;87.28;;;11.10;;
42598;SDS011;28225;42.714;23.860;2023-05-01T01:03:57;62.33;;;9.48;;
42598;SDS011;28225;42.714;23.860;2023-05-01T01:04:12;63.97;;;11.33;;
42598;SDS011;28225;42.714;23.860;2023-05-01T01:04:27;58.90;;;11.53;;
42598;SDS011;28225;42.714;23.860;2023-05-01T01:04:45;72.78;;;13.75;;
42598;SDS011;28225;42.714;23.860;2023-05-01T01:05:01;88.32;;;14.55;;
42598;SDS011;28225;42.714;23.860;2023-05-01T01:05:19;85.22;;;11.93;;
42598;SDS011;28225;42.714;23.860;2023-05-01T01:05:38;97.55;;;12.20;;
42598;SDS011;28225;42.714;23.860;2023-05-01T01:05:58;90.40;;;11.77;;
42598;SDS011;28225;42.714;23.860;2023-05-01T01:06:51;58.08;;;10.88;;
42598;SDS011;28225;42.714;23.860;2023-05-01T01:07:47;91.40;;;13.65;;
42598;SDS011;28225;42.714;23.860;2023-05-01T01:08:10;66.93;;;10.63;;
42598;SDS011;28225;42.714;23.860;2023-05-01T01:08:28;65.60;;;9.50;;
42598;SDS011;28225;42.714;23.860;2023-05-01T01:08:56;79.55;;;11.82;;
42598;SDS011;28225;42.714;23.860;2023-05-01T01:09:36;59.35;;;11.82;;
42598;SDS011;28225;42.714;23.860;2023-05-01T01:10:01;91.75;;;11.73;;
42598;SDS011;28225;42.714;23.860;2023-05-01T01:10:29;154.40;;;14.13;;
42598;SDS011;28225;42.714;23.860;2023-05-01T01:11:42;155.38;;;15.95;;
42598;SDS011;28225;42.714;23.860;2023-05-01T01:12:23;163.07;;;15.75;;
42598;SDS011;28225;42.714;23.860;2023-05-01T01:13:29;133.27;;;14.82;;
42598;SDS011;28225;42.714;23.860;2023-05-01T01:14:34;110.55;;;13.25;;
42598;SDS011;28225;42.714;23.860;2023-05-01T01:15:33;125.63;;;13.18;;
42598;SDS011;28225;42.714;23.860;2023-05-01T01:16:23;65.97;;;10.27;;
42598;SDS011;28225;42.714;23.860;2023-05-01T01:16:56;56.78;;;9.15;;
42598;SDS011;28225;42.714;23.860;2023-05-01T01:17:16;58.70;;;9.18;;
42598;SDS011;28225;42.714;23.860;2023-05-01T01:17:39;73.63;;;9.98;;
42598;SDS011;28225;42.714;23.860;2023-05-01T01:17:58;79.82;;;10.25;;
42598;SDS011;28225;42.714;23.860;2023-05-01T01:18:32;73.57;;;9.70;;
42598;SDS011;28225;42.714;23.860;2023-05-01T01:21:27;63.88;;;9.73;;
42598;SDS011;28225;42.714;23.860;2023-05-01T01:21:46;76.00;;;9.95;;
42598;SDS011;28225;42.714;23.860;2023-05-01T01:22:06;71.75;;;10.02;;
42598;SDS011;28225;42.714;23.860;2023-05-01T01:22:25;65.10;;;11.27;;
42598;SDS011;28225;42.714;23.860;2023-05-01T01:22:42;72.30;;;11.80;;
42598;SDS011;28225;42.714;23.860;2023-05-01T01:24:07;79.60;;;11.48;;
42598;SDS011;28225;42.714;23.860;2023-05-01T01:26:10;98.55;;;12.02;;
42598;SDS011;28225;42.714;23.860;2023-05-01T01:26:38;63.15;;;10.52;;
42598;SDS011;28225;42.714;23.860;2023-05-01T01:32:10;133.00;;;13.05;;
42598;SDS011;28225;42.714;23.860;2023-05-01T01:32:55;107.82;;;10.93;;
42598;SDS011;28225;42.714;23.860;2023-05-01T01:34:27;128.27;;;15.40;;
42598;SDS011;28225;42.714;23.860;2023-05-01T01:34:50;106.50;;;12.00;;
42598;SDS011;28225;42.714;23.860;2023-05-01T01:35:09;106.63;;;14.18;;
42598;SDS011;28225;42.714;23.860;2023-05-01T01:35:28;92.40;;;12.10;;
42598;SDS011;28225;42.714;23.860;2023-05-01T01:35:48;113.40;;;12.05;;
42598;SDS011;28225;42.714;23.860;2023-05-01T01:36:14;107.90;;;11.25;;
42598;SDS011;28225;42.714;23.860;2023-05-01T01:37:07;109.47;;;12.00;;
42598;SDS011;28225;42.714;23.860;2023-05-01T01:37:31;106.22;;;12.25;;
42598;SDS011;28225;42.714;23.860;2023-05-01T01:38:35;121.63;;;13.27;;
42598;SDS011;28225;42.714;23.860;2023-05-01T01:39:05;117.70;;;12.20;;
42598;SDS011;28225;42.714;23.860;2023-05-01T01:40:24;84.15;;;10.80;;
42598;SDS011;28225;42.714;23.860;2023-05-01T01:41:23;115.07;;;12.20;;
42598;SDS011;28225;42.714;23.860;2023-05-01T01:41:42;100.78;;;10.55;;
42598;SDS011;28225;42.714;23.860;2023-05-01T01:42:00;99.72;;;11.23;;
42598;SDS011;28225;42.714;23.860;2023-05-01T01:42:28;89.13;;;11.43;;
42598;SDS011;28225;42.714;23.860;2023-05-01T01:42:51;85.47;;;10.10;;
42598;SDS011;28225;42.714;23.860;2023-05-01T01:43:11;76.88;;;11.15;;
42598;SDS011;28225;42.714;23.860;2023-05-01T01:43:28;78.50;;;10.60;;
42598;SDS011;28225;42.714;23.860;2023-05-01T01:43:50;84.32;;;9.93;;
42598;SDS011;28225;42.714;23.860;2023-05-01T01:44:18;112.82;;;13.48;;
42598;SDS011;28225;42.714;23.860;2023-05-01T01:44:37;106.40;;;12.15;;
42598;SDS011;28225;42.714;23.860;2023-05-01T01:44:58;98.28;;;10.73;;
42598;SDS011;28225;42.714;23.860;2023-05-01T01:45:16;102.57;;;11.18;;
42598;SDS011;28225;42.714;23.860;2023-05-01T01:45:37;102.88;;;10.75;;
42598;SDS011;28225;42.714;23.860;2023-05-01T01:45:56;93.35;;;9.65;;
42598;SDS011;28225;42.714;23.860;2023-05-01T01:46:14;71.82;;;9.38;;
42598;SDS011;28225;42.714;23.860;2023-05-01T01:46:32;51.28;;;7.93;;
42598;SDS011;28225;42.714;23.860;2023-05-01T01:46:52;43.38;;;7.97;;
42598;SDS011;28225;42.714;23.860;2023-05-01T01:47:09;43.33;;;8.55;;
42598;SDS011;28225;42.714;23.860;2023-05-01T01:47:26;41.67;;;8.57;;
42598;SDS011;28225;42.714;23.860;2023-05-01T01:47:45;50.38;;;8.45;;
42598;SDS011;28225;42.714;23.860;2023-05-01T01:48:02;43.38;;;7.95;;
42598;SDS011;28225;42.714;23.860;2023-05-01T01:48:23;49.97;;;7.78;;
42598;SDS011;28225;42.714;23.860;2023-05-01T01:48:41;60.65;;;7.63;;
42598;SDS011;28225;42.714;23.860;2023-05-01T01:48:57;53.20;;;8.40;;
42598;SDS011;28225;42.714;23.860;2023-05-01T01:49:18;42.50;;;9.20;;
42598;SDS011;28225;42.714;23.860;2023-05-01T01:49:37;55.63;;;11.43;;
42598;SDS011;28225;42.714;23.860;2023-05-01T01:49:55;72.13;;;11.27;;
42598;SDS011;28225;42.714;23.860;2023-05-01T01:50:11;63.85;;;10.43;;
42598;SDS011;28225;42.714;23.860;2023-05-01T01:50:26;83.13;;;10.60;;
42598;SDS011;28225;42.714;23.860;2023-05-01T01:50:43;84.10;;;10.75;;
42598;SDS011;28225;42.714;23.860;2023-05-01T01:50:59;57.75;;;9.98;;
42598;SDS011;28225;42.714;23.860;2023-05-01T01:51:16;93.72;;;12.93;;
42598;SDS011;28225;42.714;23.860;2023-05-01T01:51:32;128.13;;;14.20;;
42598;SDS011;28225;42.714;23.860;2023-05-01T01:51:50;114.13;;;11.25;;
42598;SDS011;28225;42.714;23.860;2023-05-01T01:52:07;63.42;;;9.82;;
42598;SDS011;28225;42.714;23.860;2023-05-01T01:52:24;54.65;;;8.57;;
42598;SDS011;28225;42.714;23.860;2023-05-01T01:52:40;56.47;;;8.38;;
42598;SDS011;28225;42.714;23.860;2023-05-01T01:52:57;48.95;;;8.18;;
42598;SDS011;28225;42.714;23.860;2023-05-01T01:53:15;58.38;;;8.90;;
42598;SDS011;28225;42.714;23.860;2023-05-01T01:53:32;54.60;;;8.68;;
42598;SDS011;28225;42.714;23.860;2023-05-01T01:53:50;35.60;;;8.05;;
42598;SDS011;28225;42.714;23.860;2023-05-01T01:54:08;34.45;;;7.60;;
42598;SDS011;28225;42.714;23.860;2023-05-01T01:54:28;32.50;;;8.23;;
42598;SDS011;28225;42.714;23.860;2023-05-01T01:54:48;99.15;;;11.00;;
42598;SDS011;28225;42.714;23.860;2023-05-01T01:55:07;69.10;;;8.57;;
42598;SDS011;28225;42.714;23.860;2023-05-01T01:55:26;34.20;;;7.35;;
42598;SDS011;28225;42.714;23.860;2023-05-01T01:55:44;50.00;;;8.55;;
42598;SDS011;28225;42.714;23.860;2023-05-01T01:56:00;49.17;;;8.43;;
42598;SDS011;28225;42.714;23.860;2023-05-01T01:56:19;50.40;;;9.10;;
42598;SDS011;28225;42.714;23.860;2023-05-01T01:56:36;52.88;;;9.63;;
42598;SDS011;28225;42.714;23.860;2023-05-01T01:56:52;47.03;;;8.52;;
42598;SDS011;28225;42.714;23.860;2023-05-01T01:57:08;35.92;;;7.47;;
42598;SDS011;28225;42.714;23.860;2023-05-01T01:57:25;34.40;;;7.72;;
42598;SDS011;28225;42.714;23.860;2023-05-01T01:57:41;37.05;;;7.25;;
42598;SDS011;28225;42.714;23.860;2023-05-01T01:57:58;30.53;;;7.27;;
42598;SDS011;28225;42.714;23.860;2023-05-01T01:58:15;40.45;;;8.93;;
42598;SDS011;28225;42.714;23.860;2023-05-01T01:58:32;43.03;;;8.70;;
42598;SDS011;28225;42.714;23.860;2023-05-01T01:58:49;41.85;;;8.98;;
42598;SDS011;28225;42.714;23.860;2023-05-01T01:59:06;66.80;;;10.60;;